Time;durP1;ratioP1;P1;durP2;ratioP2;P2;SDS_P1;SDS_P2;PMS_P1;PMS_P2;Temp;Humidity;BMP_temperature;BMP_pressure;BME280_temperature;BME280_humidity;BME280_pressure;Samples;Min_cycle;Max_cycle;Signal;HPM_P1;HPM_P2
2023/02/09 00:01:20;;;;;;;0.00;0.00;;;;;;;-1.71;40.85;97188.63;5091885;28;20240;-70
2023/02/09 00:03:47;;;;;;;0.00;0.00;;;;;;;-1.09;39.83;97189.44;5092069;28;20201;-70
2023/02/09 00:06:17;;;;;;;0.00;0.00;;;;;;;-1.66;41.25;97187.31;5091419;28;20195;-69
2023/02/09 00:08:44;;;;;;;0.40;0.40;;;;;;;-1.60;41.66;97173.97;5093028;28;20250;-69
2023/02/09 00:11:20;;;;;;;0.35;0.35;;;;;;;-1.20;41.05;97182.63;5092182;28;20616;-70
2023/02/09 00:13:47;;;;;;;8.65;7.95;;;;;;;-1.07;40.17;97175.50;5092790;28;20191;-69
2023/02/09 00:16:15;;;;;;;0.00;0.00;;;;;;;-0.96;40.67;97181.50;5093665;28;20962;-70
2023/02/09 00:18:41;;;;;;;18.08;6.85;;;;;;;-1.00;40.51;97177.59;5095770;28;20195;-71
2023/02/09 00:21:10;;;;;;;0.00;0.00;;;;;;;-1.12;40.51;97176.84;5093549;28;20226;-69
2023/02/09 00:23:39;;;;;;;1.17;1.17;;;;;;;-1.04;40.63;97175.25;5093482;28;20289;-70
2023/02/09 00:26:09;;;;;;;3.20;2.38;;;;;;;-2.11;42.92;97180.75;5092997;28;20232;-71
2023/02/09 00:28:37;;;;;;;0.00;0.00;;;;;;;-1.87;42.28;97176.22;5075260;28;20289;-69
2023/02/09 00:31:10;;;;;;;0.00;0.00;;;;;;;-1.79;42.31;97171.28;5073362;28;20318;-70
2023/02/09 00:33:39;;;;;;;0.00;0.00;;;;;;;-1.51;42.10;97175.81;5092136;28;20214;-70
2023/02/09 00:36:09;;;;;;;0.00;0.00;;;;;;;-1.22;40.96;97165.66;5091787;28;20203;-70
2023/02/09 00:38:36;;;;;;;0.00;0.00;;;;;;;-1.34;40.67;97157.22;5092217;28;20222;-70
2023/02/09 00:41:04;;;;;;;0.00;0.00;;;;;;;-1.16;40.51;97171.13;5093231;28;20230;-70
2023/02/09 00:43:31;;;;;;;0.00;0.00;;;;;;;-1.18;40.33;97170.44;5092404;28;20191;-69
2023/02/09 00:45:58;;;;;;;0.00;0.00;;;;;;;-1.36;40.67;97168.56;5072960;28;20650;-69
2023/02/09 00:48:25;;;;;;;1.98;1.65;;;;;;;-1.56;40.83;97151.41;5091650;28;20202;-71
2023/02/09 00:50:53;;;;;;;0.00;0.00;;;;;;;-1.28;40.29;97140.47;5072769;28;20262;-71
2023/02/09 00:53:20;;;;;;;1.67;1.58;;;;;;;-1.27;40.06;97137.78;5091255;28;20195;-70
2023/02/09 00:55:48;;;;;;;0.00;0.00;;;;;;;-1.50;40.36;97126.03;5090906;28;20206;-70
2023/02/09 00:58:15;;;;;;;0.00;0.00;;;;;;;-1.34;40.30;97152.09;5073216;28;20204;-71
2023/02/09 01:00:42;;;;;;;1.67;1.58;;;;;;;-1.39;40.49;97146.53;5072322;28;20672;-70
2023/02/09 01:03:10;;;;;;;0.10;0.10;;;;;;;-1.17;40.27;97148.91;5073334;28;20671;-70
2023/02/09 01:05:41;;;;;;;1.38;0.68;;;;;;;-1.22;40.40;97120.19;5090592;28;20654;-70
2023/02/09 01:08:10;;;;;;;14.95;1.63;;;;;;;-1.02;40.47;97147.63;5091359;28;20207;-70
2023/02/09 01:10:38;;;;;;;0.00;0.00;;;;;;;-1.08;40.66;97143.00;5090421;28;20233;-68
2023/02/09 01:13:05;;;;;;;0.08;0.08;;;;;;;-1.10;40.04;97124.31;5091184;28;20313;-70
2023/02/09 01:15:32;;;;;;;0.00;0.00;;;;;;;-1.11;39.90;97132.97;5072261;28;20195;-69
2023/02/09 01:17:59;;;;;;;0.70;0.70;;;;;;;-0.96;40.09;97141.16;5091677;28;20576;-70
2023/02/09 01:20:26;;;;;;;3.30;1.75;;;;;;;-1.06;39.19;97130.81;5072624;28;20198;-70
2023/02/09 01:22:53;;;;;;;0.00;0.00;;;;;;;-0.93;39.42;97125.44;5090822;28;20248;-70
2023/02/09 01:25:20;;;;;;;0.00;0.00;;;;;;;-0.87;39.04;97130.06;5090456;28;20560;-70
2023/02/09 01:27:47;;;;;;;0.00;0.00;;;;;;;-1.00;38.94;97124.34;5090482;28;20702;-70
2023/02/09 01:30:14;;;;;;;0.15;0.15;;;;;;;-0.92;38.80;97131.41;5090128;28;20280;-70
2023/02/09 01:32:44;;;;;;;0.00;0.00;;;;;;;-1.02;38.82;97111.59;5090661;28;20195;-71
2023/02/09 01:35:11;;;;;;;0.00;0.00;;;;;;;-0.99;39.49;97131.13;5090262;28;20202;-70
2023/02/09 01:37:38;;;;;;;0.10;0.10;;;;;;;-1.02;39.75;97135.72;5090345;28;20643;-69
2023/02/09 01:40:06;;;;;;;0.00;0.00;;;;;;;-1.06;39.59;97130.81;5089695;28;20807;-71
2023/02/09 01:42:34;;;;;;;0.05;0.05;;;;;;;-1.12;39.16;97130.53;5090432;28;20224;-70
2023/02/09 01:45:29;;;;;;;40.50;3.05;;;;;;;-1.12;38.89;97133.94;5077361;28;20594;-70
2023/02/09 01:48:10;;;;;;;0.00;0.00;;;;;;;-1.27;39.50;97137.78;5092339;28;20203;-69
2023/02/09 01:50:44;;;;;;;0.00;0.00;;;;;;;-1.21;39.25;97126.97;5072929;28;20219;-70
2023/02/09 01:53:12;;;;;;;0.10;0.10;;;;;;;-1.28;39.55;97130.97;5090793;28;20183;-68
2023/02/09 01:55:45;;;;;;;0.17;0.17;;;;;;;-1.00;39.32;97119.19;5089817;28;20207;-70
2023/02/09 01:58:16;;;;;;;0.00;0.00;;;;;;;-1.34;39.73;97125.56;5072232;28;20314;-70
2023/02/09 02:00:44;;;;;;;0.00;0.00;;;;;;;-1.21;39.39;97113.28;5089743;28;20260;-70
2023/02/09 02:03:17;;;;;;;0.00;0.00;;;;;;;-1.17;39.33;97128.34;5090199;28;20187;-70
2023/02/09 02:05:47;;;;;;;0.00;0.00;;;;;;;-1.29;39.54;97121.66;5089734;28;20211;-70
2023/02/09 02:08:25;;;;;;;0.00;0.00;;;;;;;-1.41;39.80;97122.69;5089865;28;20202;-69
2023/02/09 02:10:53;;;;;;;0.00;0.00;;;;;;;-1.52;40.06;97103.94;5076309;28;20246;-69
2023/02/09 02:13:20;;;;;;;0.00;0.00;;;;;;;-1.55;39.67;97106.78;5071535;28;20198;-69
2023/02/09 02:16:09;;;;;;;0.00;0.00;;;;;;;-1.27;39.46;97113.81;5089474;28;20547;-69
2023/02/09 02:18:52;;;;;;;0.35;0.35;;;;;;;-1.28;39.87;97110.41;5089215;28;20191;-68
2023/02/09 02:21:36;;;;;;;0.10;0.10;;;;;;;-1.38;39.80;97111.31;5089335;28;20213;-69
2023/02/09 02:24:27;;;;;;;0.00;0.00;;;;;;;-1.66;40.57;97120.50;5090006;28;20251;-69
2023/02/09 02:26:57;;;;;;;0.00;0.00;;;;;;;-1.36;39.97;97110.25;5078208;28;20229;-69
2023/02/09 02:29:34;;;;;;;0.00;0.00;;;;;;;-1.61;40.69;97117.56;5097550;28;20186;-69
2023/02/09 02:32:23;;;;;;;0.10;0.10;;;;;;;-1.73;40.71;97118.56;5089879;28;20223;-69
2023/02/09 02:34:54;;;;;;;0.05;0.05;;;;;;;-1.75;40.78;97105.81;5089953;28;20224;-69
2023/02/09 02:37:36;;;;;;;0.47;0.47;;;;;;;-1.74;40.58;97117.75;5089581;28;20274;-69
2023/02/09 02:40:11;;;;;;;0.30;0.30;;;;;;;-1.89;40.76;97088.16;5088590;28;20203;-70
2023/02/09 02:43:22;;;;;;;0.00;0.00;;;;;;;-2.04;41.29;97109.16;5089358;28;20195;-70
2023/02/09 02:46:04;;;;;;;0.00;0.00;;;;;;;-1.98;40.80;97104.34;5068562;28;20268;-70
2023/02/09 02:48:40;;;;;;;0.00;0.00;;;;;;;-1.94;41.09;97086.91;5090671;28;20713;-69
2023/02/09 02:51:35;;;;;;;0.68;0.68;;;;;;;-1.65;40.75;97090.47;5088902;28;20260;-70
2023/02/09 02:54:08;;;;;;;0.00;0.00;;;;;;;-1.68;40.81;97070.97;5085651;28;20191;-71
2023/02/09 02:56:40;;;;;;;0.00;0.00;;;;;;;-1.57;40.61;97078.59;5090924;28;20210;-71
2023/02/09 02:59:13;;;;;;;0.00;0.00;;;;;;;-1.56;40.59;97080.25;5088868;28;20267;-69
2023/02/09 03:01:45;;;;;;;0.00;0.00;;;;;;;-1.77;40.39;97076.88;5087919;28;20207;-69
2023/02/09 03:04:14;;;;;;;0.00;0.00;;;;;;;-1.79;40.95;97077.94;5089413;28;20264;-69
2023/02/09 03:06:41;;;;;;;0.00;0.00;;;;;;;-1.74;40.73;97089.47;5088473;28;20230;-69
2023/02/09 03:09:07;;;;;;;0.00;0.00;;;;;;;-1.77;40.99;97074.28;5090109;28;20221;-72
2023/02/09 03:11:48;;;;;;;0.20;0.20;;;;;;;-2.03;41.16;97070.50;5089830;28;20725;-69
2023/02/09 03:14:34;;;;;;;0.98;0.60;;;;;;;-1.83;40.85;97082.53;5090058;28;20615;-69
2023/02/09 03:17:29;;;;;;;0.00;0.00;;;;;;;-1.79;40.64;97068.50;5089294;28;20229;-69
2023/02/09 03:20:12;;;;;;;0.00;0.00;;;;;;;-1.81;40.65;97075.50;5089999;28;20198;-69
2023/02/09 03:22:46;;;;;;;0.00;0.00;;;;;;;-1.80;40.88;97082.28;5089566;28;20198;-69
2023/02/09 03:25:33;;;;;;;3.20;2.15;;;;;;;-1.82;40.74;97073.88;5086464;28;20183;-69
2023/02/09 03:28:13;;;;;;;1.10;0.95;;;;;;;-1.86;40.74;97075.06;5088572;28;20278;-69
2023/02/09 03:30:41;;;;;;;0.00;0.00;;;;;;;-1.87;40.61;97070.88;5076588;28;20230;-69
2023/02/09 03:33:23;;;;;;;0.00;0.00;;;;;;;-1.77;40.60;97065.78;5089153;28;20195;-70
2023/02/09 03:35:54;;;;;;;0.00;0.00;;;;;;;-1.85;40.37;97066.41;5088850;28;20256;-72
2023/02/09 03:38:21;;;;;;;0.00;0.00;;;;;;;-2.27;41.06;97051.94;5090118;28;20199;-69
2023/02/09 03:40:48;;;;;;;0.00;0.00;;;;;;;-1.93;40.56;97076.50;5090973;28;20222;-69
2023/02/09 03:43:15;;;;;;;0.00;0.00;;;;;;;-1.92;40.52;97070.44;5092610;28;20249;-69
2023/02/09 03:45:42;;;;;;;0.88;0.88;;;;;;;-2.14;41.00;97073.94;5089103;28;20199;-70
2023/02/09 03:48:10;;;;;;;0.20;0.20;;;;;;;-2.02;40.59;97072.13;5088657;28;20195;-71
2023/02/09 03:50:37;;;;;;;0.00;0.00;;;;;;;-1.88;40.33;97064.09;5088669;28;20211;-71
2023/02/09 03:53:05;;;;;;;0.00;0.00;;;;;;;-1.81;40.21;97072.94;5088509;28;20198;-70
2023/02/09 03:55:33;;;;;;;0.00;0.00;;;;;;;-1.91;40.11;97064.34;5088307;28;20278;-70
2023/02/09 03:57:59;;;;;;;0.00;0.00;;;;;;;-1.97;40.25;97069.19;5089459;28;20191;-70
2023/02/09 04:00:27;;;;;;;0.00;0.00;;;;;;;-2.13;40.31;97034.47;5088640;28;20183;-70
2023/02/09 04:02:53;;;;;;;0.00;0.00;;;;;;;-2.07;40.39;97046.00;5090882;28;20252;-69
2023/02/09 04:05:21;;;;;;;0.90;0.90;;;;;;;-1.91;40.37;97074.63;5088426;28;20199;-69
2023/02/09 04:07:48;;;;;;;2.17;1.98;;;;;;;-2.06;40.39;97076.69;5088629;28;20214;-70
2023/02/09 04:10:15;;;;;;;0.00;0.00;;;;;;;-1.95;40.59;97080.94;5088321;28;20231;-69
2023/02/09 04:12:42;;;;;;;0.00;0.00;;;;;;;-2.29;41.04;97058.94;5089402;28;20720;-70
2023/02/09 04:15:10;;;;;;;2.53;2.33;;;;;;;-1.98;40.76;97078.66;5091983;28;20199;-70
2023/02/09 04:17:37;;;;;;;0.00;0.00;;;;;;;-2.09;40.75;97066.69;5092473;28;20187;-70
2023/02/09 04:20:04;;;;;;;0.00;0.00;;;;;;;-2.02;40.67;97072.13;5091286;28;20200;-70
2023/02/09 04:22:31;;;;;;;0.00;0.00;;;;;;;-2.04;40.40;97057.78;5092109;28;20195;-70
2023/02/09 04:24:57;;;;;;;0.10;0.10;;;;;;;-2.06;40.61;97068.16;5091403;28;20191;-69
2023/02/09 04:27:25;;;;;;;0.77;0.68;;;;;;;-2.17;40.63;97068.22;5091606;28;20226;-70
2023/02/09 04:29:52;;;;;;;0.00;0.00;;;;;;;-1.95;40.69;97070.66;5091298;28;20242;-70
2023/02/09 04:32:19;;;;;;;0.00;0.00;;;;;;;-1.94;40.64;97072.31;5091864;28;20652;-70
2023/02/09 04:34:46;;;;;;;3.47;3.28;;;;;;;-2.08;40.17;97044.38;5091441;28;20590;-69
2023/02/09 04:37:13;;;;;;;0.00;0.00;;;;;;;-1.90;39.79;97060.03;5091655;28;20209;-71
2023/02/09 04:39:40;;;;;;;5.50;5.03;;;;;;;-1.98;40.00;97062.41;5091668;28;20204;-70
2023/02/09 04:42:07;;;;;;;0.00;0.00;;;;;;;-2.01;40.44;97078.06;5091280;28;20191;-70
2023/02/09 04:44:33;;;;;;;0.00;0.00;;;;;;;-2.06;40.33;97084.41;5091143;28;20226;-70
2023/02/09 04:47:00;;;;;;;0.00;0.00;;;;;;;-2.20;40.37;97073.63;5090873;28;20214;-70
2023/02/09 04:49:27;;;;;;;0.00;0.00;;;;;;;-2.22;40.74;97072.91;5091287;28;20199;-70
2023/02/09 04:51:54;;;;;;;0.00;0.00;;;;;;;-2.37;40.96;97063.88;5091153;28;20230;-71
2023/02/09 04:54:20;;;;;;;0.00;0.00;;;;;;;-2.51;41.12;97077.00;5091422;28;20274;-70
2023/02/09 04:59:33;;;;;;;0.00;0.00;;;;;;;-2.31;40.92;97071.91;5090932;28;20608;-70
2023/02/09 04:59:37;;;;;;;0.00;0.00;;;;;;;-2.11;40.63;97070.31;5078034;28;20222;-69
2023/02/09 05:02:04;;;;;;;0.00;0.00;;;;;;;-2.03;40.71;97077.38;5090466;28;20207;-70
2023/02/09 05:04:31;;;;;;;0.15;0.15;;;;;;;-2.11;40.07;97068.56;5091314;28;20227;-70
2023/02/09 05:06:58;;;;;;;0.00;0.00;;;;;;;-2.33;41.25;97072.97;5092397;28;20285;-70
2023/02/09 05:09:26;;;;;;;0.00;0.00;;;;;;;-2.19;40.66;97070.13;5092462;28;20282;-70
2023/02/09 05:11:53;;;;;;;0.08;0.08;;;;;;;-2.03;40.48;97070.50;5090576;28;20288;-71
2023/02/09 05:14:20;;;;;;;0.00;0.00;;;;;;;-2.46;41.08;97062.06;5090900;28;20521;-71
2023/02/09 05:16:47;;;;;;;4.18;3.85;;;;;;;-2.24;40.94;97079.94;5090837;28;20191;-70
2023/02/09 05:19:13;;;;;;;0.00;0.00;;;;;;;-2.31;40.85;97081.38;5091571;28;20187;-70
2023/02/09 05:21:40;;;;;;;0.00;0.00;;;;;;;-2.24;40.73;97067.09;5089020;28;20191;-70
2023/02/09 05:24:07;;;;;;;1.98;1.88;;;;;;;-2.16;40.68;97075.81;5090617;28;20191;-70
2023/02/09 05:26:34;;;;;;;0.05;0.05;;;;;;;-2.45;41.10;97056.81;5089828;28;20441;-69
2023/02/09 05:29:01;;;;;;;0.08;0.08;;;;;;;-2.09;40.62;97071.81;5091614;28;20203;-71
2023/02/09 05:31:28;;;;;;;2.15;2.05;;;;;;;-1.99;40.40;97077.03;5099039;28;20222;-69
2023/02/09 05:33:55;;;;;;;0.25;0.25;;;;;;;-2.39;40.47;97071.72;5111271;28;20205;-70
2023/02/09 05:36:24;;;;;;;0.00;0.00;;;;;;;-2.31;40.23;97065.97;5090638;28;20884;-67
2023/02/09 05:38:50;;;;;;;0.00;0.00;;;;;;;-2.15;40.76;97081.75;5091641;28;20234;-69
2023/02/09 05:44:03;;;;;;;0.60;0.55;;;;;;;-1.97;40.28;97080.25;5091122;28;20199;-69
2023/02/09 05:46:30;;;;;;;0.00;0.00;;;;;;;-2.09;40.27;97087.22;5090073;28;20194;-67
2023/02/09 05:48:57;;;;;;;0.05;0.05;;;;;;;-1.99;40.54;97081.34;5090565;28;20195;-68
2023/02/09 05:51:25;;;;;;;0.00;0.00;;;;;;;-1.78;40.39;97100.94;5087981;28;20227;-69
2023/02/09 05:53:53;;;;;;;0.00;0.00;;;;;;;-1.75;40.27;97090.41;5090498;28;20227;-69
2023/02/09 05:56:21;;;;;;;0.85;0.85;;;;;;;-2.01;40.33;97085.78;5087641;28;20789;-68
2023/02/09 06:01:33;;;;;;;0.00;0.00;;;;;;;-1.73;43.65;97083.38;5088112;28;20332;-68
2023/02/09 06:04:00;;;;;;;0.30;0.30;;;;;;;-1.70;41.42;97092.63;5088589;28;20187;-69
2023/02/09 06:06:27;;;;;;;0.00;0.00;;;;;;;-1.78;41.25;97095.81;5071786;28;20223;-62
2023/02/09 06:08:54;;;;;;;0.00;0.00;;;;;;;-1.67;41.26;97093.16;5088693;28;20195;-68
2023/02/09 06:11:21;;;;;;;0.00;0.00;;;;;;;-1.83;40.91;97085.09;5089492;28;20222;-68
2023/02/09 06:13:48;;;;;;;1.67;1.58;;;;;;;-1.78;40.84;97062.41;5091465;28;20203;-67
2023/02/09 06:16:15;;;;;;;0.55;0.55;;;;;;;-1.77;40.36;97061.44;5090144;28;20187;-69
2023/02/09 06:18:42;;;;;;;0.00;0.00;;;;;;;-1.78;40.26;97070.13;5089740;28;20262;-67
2023/02/09 06:21:10;;;;;;;0.03;0.03;;;;;;;-1.49;40.39;97076.22;5062144;28;20235;-67
2023/02/09 06:23:38;;;;;;;13.52;4.03;;;;;;;-1.70;40.23;97072.88;5076420;28;20203;-68
2023/02/09 06:26:12;;;;;;;0.00;0.00;;;;;;;-1.33;39.75;97081.69;5089159;28;20195;-68
2023/02/09 06:28:39;;;;;;;0.08;0.08;;;;;;;-1.48;39.89;97082.97;5089221;28;20194;-67
2023/02/09 06:31:06;;;;;;;0.00;0.00;;;;;;;-1.39;39.91;97082.22;5089013;28;20252;-68
2023/02/09 06:33:35;;;;;;;0.00;0.00;;;;;;;-1.16;39.31;97083.69;5088937;28;20230;-68
2023/02/09 06:36:03;;;;;;;0.00;0.00;;;;;;;-1.04;39.29;97072.31;5087576;28;20210;-69
2023/02/09 06:38:31;;;;;;;0.00;0.00;;;;;;;-0.92;39.11;97072.22;5087562;28;20199;-68
2023/02/09 06:40:58;;;;;;;0.00;0.00;;;;;;;-0.99;39.08;97053.13;5086972;28;20290;-69
2023/02/09 06:43:25;;;;;;;0.08;0.08;;;;;;;-0.81;38.65;97077.25;5088646;28;20746;-68
2023/02/09 06:45:52;;;;;;;0.17;0.17;;;;;;;-0.74;38.68;97050.03;5076720;28;20302;-69
2023/02/09 06:48:19;;;;;;;0.00;0.00;;;;;;;-0.62;38.80;97064.44;5091116;28;20206;-67
2023/02/09 06:50:46;;;;;;;0.00;0.00;;;;;;;-0.71;38.04;97036.94;5092554;28;20187;-72
2023/02/09 06:53:16;;;;;;;0.30;0.30;;;;;;;-0.46;38.02;97041.53;5091713;28;20670;-68
2023/02/09 06:55:42;;;;;;;0.15;0.15;;;;;;;-0.32;37.57;97043.69;5089956;28;20203;-73
2023/02/09 06:58:09;;;;;;;0.00;0.00;;;;;;;-0.33;37.23;97048.03;5090286;28;20195;-68
2023/02/09 07:00:36;;;;;;;0.00;0.00;;;;;;;-0.18;37.20;97045.84;5092906;28;20192;-68
2023/02/09 07:03:03;;;;;;;0.00;0.00;;;;;;;-0.70;36.80;97048.84;5092232;28;20227;-67
2023/02/09 07:05:30;;;;;;;0.17;0.17;;;;;;;-0.33;36.95;97044.66;5088919;28;20194;-68
2023/02/09 07:07:57;;;;;;;0.00;0.00;;;;;;;-0.32;37.68;97054.00;5089660;28;20199;-68
2023/02/09 07:10:24;;;;;;;0.10;0.10;;;;;;;-0.34;37.22;97030.97;5088943;28;20222;-69
2023/02/09 07:12:51;;;;;;;0.00;0.00;;;;;;;-0.06;37.23;97044.78;5089122;28;20297;-68
2023/02/09 07:15:17;;;;;;;0.00;0.00;;;;;;;-0.33;37.94;97042.88;5088756;28;20688;-68
2023/02/09 07:17:44;;;;;;;0.00;0.00;;;;;;;-0.31;37.61;97037.63;5089409;28;20199;-68
2023/02/09 07:20:11;;;;;;;0.00;0.00;;;;;;;-0.11;37.98;97054.69;5089509;28;20226;-69
2023/02/09 07:22:39;;;;;;;2.47;1.55;;;;;;;0.23;37.50;97048.13;5089540;28;20672;-67
2023/02/09 07:25:06;;;;;;;0.52;0.52;;;;;;;0.28;37.19;97047.69;5088302;28;20206;-68
2023/02/09 07:27:33;;;;;;;0.17;0.17;;;;;;;0.35;37.82;97039.25;5088734;28;20223;-68
2023/02/09 07:30:00;;;;;;;2.00;1.90;;;;;;;0.53;37.83;97042.72;5088362;28;20203;-68
2023/02/09 07:32:27;;;;;;;3.33;3.03;;;;;;;0.64;37.64;97034.03;5089093;28;20218;-68
2023/02/09 07:34:54;;;;;;;0.30;0.30;;;;;;;0.76;37.23;97012.22;5088876;28;20198;-68
2023/02/09 07:37:21;;;;;;;3.58;2.63;;;;;;;1.12;36.78;97031.16;5088472;28;20654;-68
2023/02/09 07:39:48;;;;;;;0.50;0.50;;;;;;;1.03;37.16;97023.34;5088735;28;20191;-68
2023/02/09 07:42:15;;;;;;;1.17;1.17;;;;;;;1.33;36.35;97042.88;5088937;28;20206;-68
2023/02/09 07:44:56;;;;;;;0.10;0.10;;;;;;;1.07;37.04;97041.13;5070008;28;20286;-70
2023/02/09 07:47:23;;;;;;;0.00;0.00;;;;;;;1.47;36.36;97033.81;5087232;28;20203;-68
2023/02/09 07:49:50;;;;;;;2.15;2.00;;;;;;;1.57;36.17;97034.56;5093164;28;20278;-68
2023/02/09 07:52:17;;;;;;;0.30;0.30;;;;;;;1.49;36.23;97021.56;5092058;28;20545;-69
2023/02/09 07:54:43;;;;;;;0.38;0.38;;;;;;;1.39;35.68;97015.63;5092742;28;20239;-68
2023/02/09 07:57:12;;;;;;;0.00;0.00;;;;;;;1.75;36.12;97012.09;5092459;28;20199;-68
2023/02/09 07:59:39;;;;;;;0.30;0.30;;;;;;;2.10;35.16;97027.53;5092800;28;20190;-67
2023/02/09 08:02:15;;;;;;;0.10;0.10;;;;;;;2.09;35.40;97025.94;5093052;28;20207;-72
2023/02/09 08:04:43;;;;;;;0.00;0.00;;;;;;;2.21;35.26;97016.94;5092985;28;20656;-69
2023/02/09 08:07:10;;;;;;;2.50;1.45;;;;;;;1.43;35.19;97024.72;5092258;28;20218;-68
2023/02/09 08:09:37;;;;;;;3.17;1.73;;;;;;;1.99;35.27;97014.84;5092247;28;20700;-70
2023/02/09 08:12:04;;;;;;;0.25;0.25;;;;;;;2.29;35.05;97022.19;5092000;28;20203;-68
2023/02/09 08:14:41;;;;;;;0.15;0.15;;;;;;;2.63;34.13;96999.72;5092573;28;20203;-69
2023/02/09 08:17:21;;;;;;;0.10;0.10;;;;;;;2.82;33.33;97019.38;5091876;28;20206;-70
2023/02/09 08:20:02;;;;;;;0.35;0.35;;;;;;;2.74;35.15;97027.91;5091887;28;20195;-68
2023/02/09 08:22:32;;;;;;;0.00;0.00;;;;;;;2.82;35.35;97017.59;5092223;28;20202;-68
2023/02/09 08:25:01;;;;;;;0.00;0.00;;;;;;;2.83;34.31;97024.41;5092662;28;20555;-69
2023/02/09 08:27:30;;;;;;;0.00;0.00;;;;;;;2.93;33.92;97030.28;5092275;28;20266;-69
2023/02/09 08:29:57;;;;;;;0.00;0.00;;;;;;;3.24;33.04;97030.53;5092785;28;20195;-68
2023/02/09 08:32:24;;;;;;;0.00;0.00;;;;;;;3.27;33.08;97024.22;5104657;28;20239;-69
2023/02/09 08:34:51;;;;;;;1.45;1.05;;;;;;;3.52;31.94;97008.53;5113952;28;20192;-68
2023/02/09 08:37:18;;;;;;;0.00;0.00;;;;;;;3.20;32.42;97023.22;5092088;28;20227;-67
2023/02/09 08:39:45;;;;;;;0.10;0.10;;;;;;;3.53;32.09;96993.81;5092458;28;20268;-68
2023/02/09 08:42:11;;;;;;;0.25;0.25;;;;;;;3.85;31.68;97009.41;5092946;28;20199;-68
2023/02/09 08:44:38;;;;;;;0.00;0.00;;;;;;;4.02;32.10;97017.00;5091658;28;20215;-69
2023/02/09 08:47:05;;;;;;;0.17;0.17;;;;;;;3.47;31.75;96999.63;5091317;28;20225;-67
2023/02/09 08:49:32;;;;;;;2.90;1.17;;;;;;;3.29;31.68;97001.53;5092078;28;20191;-69
2023/02/09 08:51:58;;;;;;;0.17;0.17;;;;;;;3.86;31.68;97016.19;5091198;28;20253;-68
2023/02/09 08:54:25;;;;;;;5.60;1.88;;;;;;;3.95;31.64;97005.66;5091222;28;20677;-68
2023/02/09 08:56:52;;;;;;;0.00;0.00;;;;;;;4.17;31.16;97009.38;5091119;28;20195;-68
2023/02/09 08:59:20;;;;;;;0.00;0.00;;;;;;;4.11;31.75;97025.59;5071927;28;20198;-69
2023/02/09 09:01:47;;;;;;;0.85;0.40;;;;;;;4.70;31.34;97017.38;5091028;28;20193;-68
2023/02/09 09:04:14;;;;;;;0.17;0.17;;;;;;;4.71;30.54;97020.75;5091878;28;20548;-68
2023/02/09 09:06:41;;;;;;;0.03;0.03;;;;;;;4.56;30.68;97019.84;5090828;28;20665;-66
2023/02/09 09:09:08;;;;;;;0.05;0.05;;;;;;;4.66;30.90;97018.69;5091282;28;20763;-68
2023/02/09 09:11:35;;;;;;;0.00;0.00;;;;;;;5.09;30.58;97012.97;5091501;28;20199;-66
2023/02/09 09:14:02;;;;;;;0.13;0.13;;;;;;;5.21;30.40;97013.44;5091432;28;20295;-67
2023/02/09 09:16:29;;;;;;;0.00;0.00;;;;;;;5.18;30.26;97012.97;5090750;28;20306;-67
2023/02/09 09:18:56;;;;;;;0.95;0.88;;;;;;;5.30;29.89;97032.38;5091916;28;20575;-69
2023/02/09 09:21:23;;;;;;;0.00;0.00;;;;;;;5.04;29.64;97030.88;5091464;28;20292;-68
2023/02/09 09:23:50;;;;;;;0.30;0.30;;;;;;;5.14;29.53;97026.31;5091922;28;20293;-68
2023/02/09 09:26:17;;;;;;;0.30;0.30;;;;;;;5.09;29.99;97023.38;5091041;28;20284;-68
2023/02/09 09:28:44;;;;;;;0.08;0.08;;;;;;;5.48;30.89;96999.94;5090752;28;20286;-68
2023/02/09 09:31:15;;;;;;;0.10;0.10;;;;;;;5.67;30.64;97022.91;5091232;28;20213;-67
2023/02/09 09:33:43;;;;;;;0.00;0.00;;;;;;;6.09;30.15;97006.84;5091001;28;20230;-67
2023/02/09 09:36:11;;;;;;;0.00;0.00;;;;;;;5.95;30.40;97003.19;5090530;28;20716;-67
2023/02/09 09:38:38;;;;;;;0.10;0.10;;;;;;;6.20;29.62;96997.78;5090819;28;20198;-67
2023/02/09 09:41:17;;;;;;;0.22;0.22;;;;;;;6.95;28.86;97007.88;5090684;28;20203;-67
2023/02/09 09:43:44;;;;;;;0.10;0.10;;;;;;;7.11;29.44;97002.47;5090539;28;20202;-68
2023/02/09 09:46:17;;;;;;;0.20;0.20;;;;;;;7.68;27.94;96980.81;5089988;28;20187;-67
2023/02/09 09:48:48;;;;;;;0.00;0.00;;;;;;;7.62;27.33;97005.03;5091063;28;20206;-68
2023/02/09 09:51:27;;;;;;;1.08;0.90;;;;;;;7.92;27.15;96988.25;5089789;28;20746;-67
2023/02/09 09:53:58;;;;;;;0.32;0.25;;;;;;;8.21;27.38;96980.28;5076965;28;20280;-68
2023/02/09 09:56:28;;;;;;;0.00;0.00;;;;;;;8.34;26.89;96990.81;5090353;28;20191;-67
2023/02/09 09:58:55;;;;;;;1.17;0.30;;;;;;;7.93;26.54;96984.66;5091006;28;20193;-66
2023/02/09 10:01:25;;;;;;;6.22;0.63;;;;;;;7.70;27.48;96987.44;5089976;28;20187;-66
2023/02/09 10:03:52;;;;;;;0.30;0.28;;;;;;;7.67;27.20;96974.78;5090476;28;20238;-67
2023/02/09 10:06:21;;;;;;;0.30;0.30;;;;;;;7.05;27.48;96992.78;5071837;28;20267;-66
2023/02/09 10:08:58;;;;;;;0.00;0.00;;;;;;;6.79;27.84;96982.00;5089910;28;20227;-67
2023/02/09 10:11:35;;;;;;;0.15;0.15;;;;;;;6.94;27.51;96977.59;5089499;28;20195;-66
2023/02/09 10:14:02;;;;;;;0.00;0.00;;;;;;;7.11;27.87;96970.38;5090565;28;20707;-68
2023/02/09 10:16:33;;;;;;;0.00;0.00;;;;;;;6.94;27.86;96966.34;5089679;28;20314;-67
2023/02/09 10:19:03;;;;;;;0.00;0.00;;;;;;;6.31;28.02;96964.31;5090112;28;20552;-67
2023/02/09 10:21:34;;;;;;;0.00;0.00;;;;;;;6.60;27.65;96964.34;5089720;28;20281;-67
2023/02/09 10:24:08;;;;;;;0.00;0.00;;;;;;;6.02;28.20;96978.09;5090999;28;20272;-66
2023/02/09 10:26:36;;;;;;;0.00;0.00;;;;;;;5.53;28.53;96971.63;5089024;28;20223;-68
2023/02/09 10:29:11;;;;;;;0.00;0.00;;;;;;;6.33;31.42;96966.75;5090045;28;20791;-66
2023/02/09 10:31:45;;;;;;;0.00;0.00;;;;;;;7.26;28.08;96959.91;5089856;28;20198;-67
2023/02/09 10:34:16;;;;;;;0.00;0.00;;;;;;;7.64;27.74;96950.88;5090287;28;20584;-67
2023/02/09 10:36:49;;;;;;;0.00;0.00;;;;;;;7.57;26.88;96947.41;5089727;28;20214;-67
2023/02/09 10:39:24;;;;;;;4.03;1.98;;;;;;;6.98;26.28;96944.97;5089835;28;20582;-66
2023/02/09 10:41:53;;;;;;;0.38;0.38;;;;;;;7.43;27.58;96941.22;5076429;28;20263;-66
2023/02/09 10:44:26;;;;;;;0.00;0.00;;;;;;;7.00;27.04;96950.00;5089619;28;20273;-66
2023/02/09 10:47:22;;;;;;;0.20;0.20;;;;;;;6.80;27.04;96949.75;5089111;28;20195;-66
2023/02/09 10:50:04;;;;;;;0.08;0.08;;;;;;;7.58;26.89;96935.94;5089577;28;20206;-66
2023/02/09 10:52:35;;;;;;;0.08;0.08;;;;;;;7.68;27.26;96939.06;5089337;28;20255;-68
2023/02/09 10:55:15;;;;;;;0.00;0.00;;;;;;;7.82;25.70;96930.34;5089178;28;20298;-67
2023/02/09 10:57:42;;;;;;;0.15;0.15;;;;;;;6.91;25.92;96933.66;5089023;28;20198;-66
2023/02/09 11:00:15;;;;;;;0.22;0.22;;;;;;;7.22;26.80;96935.19;5088893;28;20198;-67
2023/02/09 11:02:50;;;;;;;0.00;0.00;;;;;;;7.35;25.81;96925.72;5089430;28;20207;-66
2023/02/09 11:05:20;;;;;;;0.00;0.00;;;;;;;7.34;25.68;96926.69;5088729;28;20231;-66
2023/02/09 11:08:09;;;;;;;0.00;0.00;;;;;;;7.85;25.95;96927.34;5089023;28;20198;-67
2023/02/09 11:10:41;;;;;;;0.08;0.08;;;;;;;7.67;26.14;96916.56;5088573;28;20305;-67
2023/02/09 11:13:21;;;;;;;0.00;0.00;;;;;;;7.40;26.14;96912.91;5088874;28;20235;-67
2023/02/09 11:16:10;;;;;;;0.10;0.10;;;;;;;7.17;25.30;96923.50;5077224;28;20206;-65
2023/02/09 11:18:40;;;;;;;0.00;0.00;;;;;;;7.39;25.75;96907.91;5088996;28;20287;-66
2023/02/09 11:21:26;;;;;;;1.98;1.25;;;;;;;7.18;25.72;96906.91;5089406;28;20195;-67
2023/02/09 11:24:17;;;;;;;0.00;0.00;;;;;;;6.99;26.61;96899.66;5080494;28;20294;-66
2023/02/09 11:26:57;;;;;;;0.00;0.00;;;;;;;7.27;25.71;96893.72;5092725;28;20342;-67
2023/02/09 11:29:31;;;;;;;0.00;0.00;;;;;;;7.30;25.08;96890.75;5093761;28;20243;-67
2023/02/09 11:32:08;;;;;;;0.00;0.00;;;;;;;7.16;26.01;96908.88;5092126;28;20679;-68
2023/02/09 11:34:50;;;;;;;0.00;0.00;;;;;;;7.41;26.43;96895.47;5093400;28;20218;-67
2023/02/09 11:37:24;;;;;;;0.22;0.22;;;;;;;7.72;25.49;96890.72;5097662;28;20325;-67
2023/02/09 11:40:26;;;;;;;0.25;0.25;;;;;;;7.16;26.45;96892.41;5105240;28;20184;-67
2023/02/09 11:43:05;;;;;;;0.10;0.10;;;;;;;7.73;25.92;96892.34;5093191;28;20722;-66
2023/02/09 11:45:38;;;;;;;0.00;0.00;;;;;;;7.92;25.69;96883.81;5094388;28;20195;-68
2023/02/09 11:48:29;;;;;;;0.00;0.00;;;;;;;7.68;24.87;96876.44;5094029;28;20659;-67
2023/02/09 11:51:18;;;;;;;0.00;0.00;;;;;;;7.70;24.87;96877.84;5093188;28;20263;-66
2023/02/09 11:54:13;;;;;;;0.00;0.00;;;;;;;7.71;25.39;96865.63;5092766;28;20414;-67
2023/02/09 11:56:46;;;;;;;0.10;0.10;;;;;;;7.65;25.50;96861.16;5082450;28;20210;-69
2023/02/09 11:59:13;;;;;;;0.88;0.25;;;;;;;7.86;25.37;96859.31;5093136;28;20198;-66